sensor_id;sensor_type;location;lat;lon;timestamp;pressure;altitude;pressure_sealevel;temperature;humidity
18569;BME280;14780;48.316;-1.050;2023-04-07T00:00:10;99333.63;;;20.50;38.41
18569;BME280;14780;48.316;-1.050;2023-04-07T00:02:56;99333.63;;;20.50;38.46
18569;BME280;14780;48.316;-1.050;2023-04-07T00:05:40;99327.59;;;20.48;38.44
18569;BME280;14780;48.316;-1.050;2023-04-07T00:08:25;99337.66;;;20.48;38.46
18569;BME280;14780;48.316;-1.050;2023-04-07T00:11:10;99339.53;;;20.47;38.40
18569;BME280;14780;48.316;-1.050;2023-04-07T00:13:55;99323.50;;;20.46;38.43
18569;BME280;14780;48.316;-1.050;2023-04-07T00:16:39;99334.38;;;20.46;38.46
18569;BME280;14780;48.316;-1.050;2023-04-07T00:19:24;99331.66;;;20.46;38.52
18569;BME280;14780;48.316;-1.050;2023-04-07T00:22:09;99332.69;;;20.45;38.41
18569;BME280;14780;48.316;-1.050;2023-04-07T00:24:54;99329.41;;;20.43;38.49
18569;BME280;14780;48.316;-1.050;2023-04-07T00:27:39;99326.91;;;20.41;38.54
18569;BME280;14780;48.316;-1.050;2023-04-07T00:30:24;99320.69;;;20.41;38.53
18569;BME280;14780;48.316;-1.050;2023-04-07T00:33:08;99320.09;;;20.39;38.57
18569;BME280;14780;48.316;-1.050;2023-04-07T00:35:53;99314.66;;;20.39;38.60
18569;BME280;14780;48.316;-1.050;2023-04-07T00:38:39;99310.28;;;20.38;38.66
18569;BME280;14780;48.316;-1.050;2023-04-07T00:41:24;99311.13;;;20.38;38.54
18569;BME280;14780;48.316;-1.050;2023-04-07T00:44:08;99309.47;;;20.37;38.63
18569;BME280;14780;48.316;-1.050;2023-04-07T00:46:53;99315.13;;;20.36;38.60
18569;BME280;14780;48.316;-1.050;2023-04-07T00:49:38;99319.50;;;20.37;38.66
18569;BME280;14780;48.316;-1.050;2023-04-07T00:52:23;99321.66;;;20.35;38.57
18569;BME280;14780;48.316;-1.050;2023-04-07T00:55:12;99306.41;;;20.34;38.66
18569;BME280;14780;48.316;-1.050;2023-04-07T00:57:56;99306.97;;;20.36;38.65
18569;BME280;14780;48.316;-1.050;2023-04-07T01:00:48;99303.69;;;20.34;38.64
18569;BME280;14780;48.316;-1.050;2023-04-07T01:03:42;99308.06;;;20.35;38.55
18569;BME280;14780;48.316;-1.050;2023-04-07T01:06:32;99308.91;;;20.35;38.58
18569;BME280;14780;48.316;-1.050;2023-04-07T01:09:24;99296.63;;;20.33;38.64
18569;BME280;14780;48.316;-1.050;2023-04-07T01:15:11;99296.00;;;20.31;38.62
18569;BME280;14780;48.316;-1.050;2023-04-07T01:18:18;99296.84;;;20.31;38.63
18569;BME280;14780;48.316;-1.050;2023-04-07T01:21:15;99292.50;;;20.30;38.59
18569;BME280;14780;48.316;-1.050;2023-04-07T01:27:48;99306.31;;;20.29;38.52
18569;BME280;14780;48.316;-1.050;2023-04-07T01:30:39;99304.66;;;20.28;38.68
18569;BME280;14780;48.316;-1.050;2023-04-07T01:33:30;99312.25;;;20.26;38.78
18569;BME280;14780;48.316;-1.050;2023-04-07T01:36:16;99313.31;;;20.25;38.71
18569;BME280;14780;48.316;-1.050;2023-04-07T01:39:02;99308.13;;;20.23;38.77
18569;BME280;14780;48.316;-1.050;2023-04-07T01:41:48;99315.19;;;20.24;38.74
18569;BME280;14780;48.316;-1.050;2023-04-07T01:44:35;99308.34;;;20.22;38.75
18569;BME280;14780;48.316;-1.050;2023-04-07T01:47:20;99319.78;;;20.24;38.74
18569;BME280;14780;48.316;-1.050;2023-04-07T01:50:06;99308.59;;;20.20;38.83
18569;BME280;14780;48.316;-1.050;2023-04-07T01:52:53;99315.94;;;20.20;38.76
18569;BME280;14780;48.316;-1.050;2023-04-07T01:55:38;99320.53;;;20.19;38.74
18569;BME280;14780;48.316;-1.050;2023-04-07T01:58:22;99325.16;;;20.19;38.94
18569;BME280;14780;48.316;-1.050;2023-04-07T02:01:09;99327.03;;;20.18;38.90
18569;BME280;14780;48.316;-1.050;2023-04-07T02:03:55;99323.72;;;20.16;38.77
18569;BME280;14780;48.316;-1.050;2023-04-07T02:06:55;99328.94;;;20.18;38.77
18569;BME280;14780;48.316;-1.050;2023-04-07T02:09:43;99331.03;;;20.16;38.93
18569;BME280;14780;48.316;-1.050;2023-04-07T02:12:29;99328.81;;;20.13;38.96
18569;BME280;14780;48.316;-1.050;2023-04-07T02:15:15;99328.59;;;20.14;38.87
18569;BME280;14780;48.316;-1.050;2023-04-07T02:18:03;99326.22;;;20.18;38.86
18569;BME280;14780;48.316;-1.050;2023-04-07T02:20:50;99327.03;;;20.18;38.77
18569;BME280;14780;48.316;-1.050;2023-04-07T02:23:35;99319.22;;;20.22;38.72
18569;BME280;14780;48.316;-1.050;2023-04-07T02:26:20;99325.22;;;20.24;38.64
18569;BME280;14780;48.316;-1.050;2023-04-07T02:29:05;99326.28;;;20.23;38.75
18569;BME280;14780;48.316;-1.050;2023-04-07T02:31:49;99322.78;;;20.22;38.70
18569;BME280;14780;48.316;-1.050;2023-04-07T02:34:34;99313.44;;;20.18;38.68
18569;BME280;14780;48.316;-1.050;2023-04-07T02:37:19;99317.81;;;20.19;38.74
18569;BME280;14780;48.316;-1.050;2023-04-07T02:40:05;99309.56;;;20.14;38.82
18569;BME280;14780;48.316;-1.050;2023-04-07T02:42:51;99318.66;;;20.20;38.67
18569;BME280;14780;48.316;-1.050;2023-04-07T02:45:35;99322.44;;;20.19;38.72
18569;BME280;14780;48.316;-1.050;2023-04-07T02:48:20;99323.50;;;20.18;38.77
18569;BME280;14780;48.316;-1.050;2023-04-07T02:51:04;99329.50;;;20.20;38.73
18569;BME280;14780;48.316;-1.050;2023-04-07T02:53:49;99328.09;;;20.17;38.68
18569;BME280;14780;48.316;-1.050;2023-04-07T02:56:34;99332.47;;;20.18;38.83
18569;BME280;14780;48.316;-1.050;2023-04-07T02:59:19;99333.53;;;20.17;38.78
18569;BME280;14780;48.316;-1.050;2023-04-07T03:02:04;99329.97;;;20.17;38.78
18569;BME280;14780;48.316;-1.050;2023-04-07T03:04:51;99340.84;;;20.17;38.70
18569;BME280;14780;48.316;-1.050;2023-04-07T03:07:36;99325.88;;;20.14;38.94
18569;BME280;14780;48.316;-1.050;2023-04-07T03:10:20;99323.16;;;20.14;38.84
18569;BME280;14780;48.316;-1.050;2023-04-07T03:13:05;99328.59;;;20.14;38.81
18569;BME280;14780;48.316;-1.050;2023-04-07T03:15:51;99333.19;;;20.14;38.81
18569;BME280;14780;48.316;-1.050;2023-04-07T03:18:36;99328.00;;;20.12;38.86
18569;BME280;14780;48.316;-1.050;2023-04-07T03:21:21;99333.69;;;20.11;38.86
18569;BME280;14780;48.316;-1.050;2023-04-07T03:24:06;99328.81;;;20.13;38.74
18569;BME280;14780;48.316;-1.050;2023-04-07T03:26:51;99331.78;;;20.11;39.00
18569;BME280;14780;48.316;-1.050;2023-04-07T03:29:36;99327.66;;;20.09;38.98
18569;BME280;14780;48.316;-1.050;2023-04-07T03:32:20;99323.28;;;20.08;38.87
18569;BME280;14780;48.316;-1.050;2023-04-07T03:35:05;99311.34;;;20.09;38.92
18569;BME280;14780;48.316;-1.050;2023-04-07T03:37:50;99318.47;;;20.10;38.74
18569;BME280;14780;48.316;-1.050;2023-04-07T03:40:34;99321.41;;;20.08;38.93
18569;BME280;14780;48.316;-1.050;2023-04-07T03:43:19;99315.13;;;20.08;38.89
18569;BME280;14780;48.316;-1.050;2023-04-07T03:46:03;99315.13;;;20.08;38.90
18569;BME280;14780;48.316;-1.050;2023-04-07T03:48:48;99317.03;;;20.07;38.93
18569;BME280;14780;48.316;-1.050;2023-04-07T03:51:34;99310.78;;;20.07;38.93
18569;BME280;14780;48.316;-1.050;2023-04-07T03:54:19;99314.56;;;20.06;38.88
18569;BME280;14780;48.316;-1.050;2023-04-07T03:57:04;99316.44;;;20.05;39.05
18569;BME280;14780;48.316;-1.050;2023-04-07T03:59:49;99308.53;;;20.04;39.03
18569;BME280;14780;48.316;-1.050;2023-04-07T04:02:34;99313.50;;;20.07;39.02
18569;BME280;14780;48.316;-1.050;2023-04-07T04:05:19;99310.19;;;20.05;38.90
18569;BME280;14780;48.316;-1.050;2023-04-07T04:08:04;99317.28;;;20.06;38.91
18569;BME280;14780;48.316;-1.050;2023-04-07T04:10:49;99312.91;;;20.05;38.93
18569;BME280;14780;48.316;-1.050;2023-04-07T04:13:34;99314.75;;;20.04;38.79
18569;BME280;14780;48.316;-1.050;2023-04-07T04:16:19;99312.31;;;20.03;38.96
18569;BME280;14780;48.316;-1.050;2023-04-07T04:19:04;99313.34;;;20.02;38.96
18569;BME280;14780;48.316;-1.050;2023-04-07T04:21:49;99305.47;;;20.00;38.96
18569;BME280;14780;48.316;-1.050;2023-04-07T04:24:34;99317.13;;;20.01;39.09
18569;BME280;14780;48.316;-1.050;2023-04-07T04:27:19;99312.78;;;20.00;38.98
18569;BME280;14780;48.316;-1.050;2023-04-07T04:30:04;99318.22;;;20.00;39.03
18569;BME280;14780;48.316;-1.050;2023-04-07T04:32:49;99311.13;;;19.99;39.03
18569;BME280;14780;48.316;-1.050;2023-04-07T04:35:34;99309.47;;;19.98;39.06
18569;BME280;14780;48.316;-1.050;2023-04-07T04:38:19;99306.19;;;19.96;39.03
18569;BME280;14780;48.316;-1.050;2023-04-07T04:41:03;99311.63;;;19.96;39.10
18569;BME280;14780;48.316;-1.050;2023-04-07T04:43:48;99315.38;;;19.95;39.13
18569;BME280;14780;48.316;-1.050;2023-04-07T04:46:34;99315.38;;;19.95;39.17
18569;BME280;14780;48.316;-1.050;2023-04-07T04:49:18;99316.44;;;19.94;39.13
18569;BME280;14780;48.316;-1.050;2023-04-07T04:52:03;99315.88;;;19.92;39.23
18569;BME280;14780;48.316;-1.050;2023-04-07T04:54:48;99319.66;;;19.91;39.13
18569;BME280;14780;48.316;-1.050;2023-04-07T04:57:33;99313.16;;;19.92;39.11
18569;BME280;14780;48.316;-1.050;2023-04-07T05:00:20;99313.66;;;19.89;39.17
18569;BME280;14780;48.316;-1.050;2023-04-07T05:03:04;99310.94;;;19.89;39.29
18569;BME280;14780;48.316;-1.050;2023-04-07T05:05:49;99311.28;;;19.92;39.27
18569;BME280;14780;48.316;-1.050;2023-04-07T05:08:34;99312.09;;;19.93;39.13
18569;BME280;14780;48.316;-1.050;2023-04-07T05:11:19;99312.09;;;19.93;39.21
18569;BME280;14780;48.316;-1.050;2023-04-07T05:14:05;99326.75;;;19.92;39.14
18569;BME280;14780;48.316;-1.050;2023-04-07T05:16:49;99323.78;;;19.93;39.24
18569;BME280;14780;48.316;-1.050;2023-04-07T05:19:35;99313.16;;;19.92;39.19
18569;BME280;14780;48.316;-1.050;2023-04-07T05:22:19;99320.22;;;19.93;39.16
18569;BME280;14780;48.316;-1.050;2023-04-07T05:25:05;99322.16;;;19.92;39.17
18569;BME280;14780;48.316;-1.050;2023-04-07T05:27:50;99325.66;;;19.93;39.21
18569;BME280;14780;48.316;-1.050;2023-04-07T05:30:35;99337.59;;;19.92;39.22
18569;BME280;14780;48.316;-1.050;2023-04-07T05:33:20;99335.47;;;19.94;39.19
18569;BME280;14780;48.316;-1.050;2023-04-07T05:36:05;99335.47;;;19.94;39.17
18569;BME280;14780;48.316;-1.050;2023-04-07T05:38:50;99331.09;;;19.93;39.18
18569;BME280;14780;48.316;-1.050;2023-04-07T05:41:35;99337.59;;;19.92;39.21
18569;BME280;14780;48.316;-1.050;2023-04-07T05:44:21;99339.25;;;19.93;39.18
18569;BME280;14780;48.316;-1.050;2023-04-07T05:47:05;99334.66;;;19.93;39.07
18569;BME280;14780;48.316;-1.050;2023-04-07T05:49:52;99328.38;;;19.93;39.22
18569;BME280;14780;48.316;-1.050;2023-04-07T05:52:37;99343.03;;;19.92;39.21
18569;BME280;14780;48.316;-1.050;2023-04-07T05:55:22;99339.25;;;19.93;39.10
18569;BME280;14780;48.316;-1.050;2023-04-07T05:58:06;99346.31;;;19.94;39.24
18569;BME280;14780;48.316;-1.050;2023-04-07T06:00:51;99350.09;;;19.93;39.16
18569;BME280;14780;48.316;-1.050;2023-04-07T06:03:35;99338.66;;;19.91;39.21
18569;BME280;14780;48.316;-1.050;2023-04-07T06:06:20;99341.38;;;19.91;39.25
18569;BME280;14780;48.316;-1.050;2023-04-07T06:09:05;99337.59;;;19.92;39.23
18569;BME280;14780;48.316;-1.050;2023-04-07T06:11:49;99340.53;;;19.90;39.19
18569;BME280;14780;48.316;-1.050;2023-04-07T06:14:34;99342.44;;;19.90;39.18
18569;BME280;14780;48.316;-1.050;2023-04-07T06:17:19;99351.41;;;19.90;39.11
18569;BME280;14780;48.316;-1.050;2023-04-07T06:20:05;99356.03;;;19.90;39.17
18569;BME280;14780;48.316;-1.050;2023-04-07T06:22:50;99356.03;;;19.90;39.29
18569;BME280;14780;48.316;-1.050;2023-04-07T06:25:34;99359.81;;;19.89;39.17
18569;BME280;14780;48.316;-1.050;2023-04-07T06:28:20;99363.00;;;19.86;39.25
18569;BME280;14780;48.316;-1.050;2023-04-07T06:31:05;99361.13;;;19.86;39.32
18569;BME280;14780;48.316;-1.050;2023-04-07T06:33:51;99364.63;;;19.87;39.24
18569;BME280;14780;48.316;-1.050;2023-04-07T06:36:36;99363.56;;;19.88;39.31
18569;BME280;14780;48.316;-1.050;2023-04-07T06:39:21;99365.72;;;19.86;39.27
18569;BME280;14780;48.316;-1.050;2023-04-07T06:42:06;99375.75;;;19.85;39.46
18569;BME280;14780;48.316;-1.050;2023-04-07T06:44:51;99367.34;;;19.87;39.34
18569;BME280;14780;48.316;-1.050;2023-04-07T06:47:37;99382.84;;;19.86;39.27
18569;BME280;14780;48.316;-1.050;2023-04-07T06:50:21;99371.13;;;19.86;39.39
18569;BME280;14780;48.316;-1.050;2023-04-07T06:53:06;99381.19;;;19.85;39.29
18569;BME280;14780;48.316;-1.050;2023-04-07T06:55:50;99385.78;;;19.85;39.30
18569;BME280;14780;48.316;-1.050;2023-04-07T06:58:35;99387.44;;;19.86;39.22
18569;BME280;14780;48.316;-1.050;2023-04-07T07:01:21;99385.78;;;19.85;39.28
18569;BME280;14780;48.316;-1.050;2023-04-07T07:04:06;99385.78;;;19.85;39.32
18569;BME280;14780;48.316;-1.050;2023-04-07T07:06:51;99392.06;;;19.85;39.21
18569;BME280;14780;48.316;-1.050;2023-04-07T07:09:35;99393.94;;;19.85;39.28
18569;BME280;14780;48.316;-1.050;2023-04-07T07:12:20;99391.22;;;19.85;39.16
18569;BME280;14780;48.316;-1.050;2023-04-07T07:15:06;99395.00;;;19.84;39.30
18569;BME280;14780;48.316;-1.050;2023-04-07T07:17:51;99400.44;;;19.84;39.27
18569;BME280;14780;48.316;-1.050;2023-04-07T07:20:35;99405.63;;;19.85;39.35
18569;BME280;14780;48.316;-1.050;2023-04-07T07:23:20;99407.50;;;19.85;39.35
18569;BME280;14780;48.316;-1.050;2023-04-07T07:26:04;99409.16;;;19.86;39.33
18569;BME280;14780;48.316;-1.050;2023-04-07T07:28:49;99402.91;;;19.85;39.37
18569;BME280;14780;48.316;-1.050;2023-04-07T07:31:33;99410.81;;;19.87;39.18
18569;BME280;14780;48.316;-1.050;2023-04-07T07:34:19;99411.63;;;19.87;39.34
18569;BME280;14780;48.316;-1.050;2023-04-07T07:37:03;99405.38;;;19.87;39.29
18569;BME280;14780;48.316;-1.050;2023-04-07T07:39:48;99413.28;;;19.88;39.18
18569;BME280;14780;48.316;-1.050;2023-04-07T07:42:33;99410.00;;;19.86;39.23
18569;BME280;14780;48.316;-1.050;2023-04-07T07:45:18;99407.84;;;19.88;39.24
18569;BME280;14780;48.316;-1.050;2023-04-07T07:48:03;99407.00;;;19.88;39.36
18569;BME280;14780;48.316;-1.050;2023-04-07T07:50:48;99410.81;;;19.87;39.28
18569;BME280;14780;48.316;-1.050;2023-04-07T07:53:33;99413.50;;;19.87;39.34
18569;BME280;14780;48.316;-1.050;2023-04-07T07:56:17;99411.63;;;19.87;39.35
18569;BME280;14780;48.316;-1.050;2023-04-07T07:59:03;99410.81;;;19.87;39.32
18569;BME280;14780;48.316;-1.050;2023-04-07T08:01:49;99410.81;;;19.87;39.20
18569;BME280;14780;48.316;-1.050;2023-04-07T08:04:35;99417.06;;;19.87;39.41
18569;BME280;14780;48.316;-1.050;2023-04-07T08:07:20;99421.44;;;19.88;39.33
18569;BME280;14780;48.316;-1.050;2023-04-07T08:10:05;99413.28;;;19.88;39.44
18569;BME280;14780;48.316;-1.050;2023-04-07T08:12:50;99418.50;;;19.90;39.34
18569;BME280;14780;48.316;-1.050;2023-04-07T08:15:35;99421.19;;;19.90;39.32
18569;BME280;14780;48.316;-1.050;2023-04-07T08:18:20;99426.38;;;19.91;39.35
18569;BME280;14780;48.316;-1.050;2023-04-07T08:21:05;99425.56;;;19.91;39.30
18569;BME280;14780;48.316;-1.050;2023-04-07T08:23:50;99433.72;;;19.91;39.34
18569;BME280;14780;48.316;-1.050;2023-04-07T08:26:37;99426.63;;;19.90;39.40
18569;BME280;14780;48.316;-1.050;2023-04-07T08:29:21;99426.63;;;19.90;39.30
18569;BME280;14780;48.316;-1.050;2023-04-07T08:32:06;99426.63;;;19.90;39.38
18569;BME280;14780;48.316;-1.050;2023-04-07T08:34:50;99425.56;;;19.91;39.30
18569;BME280;14780;48.316;-1.050;2023-04-07T08:37:36;99426.63;;;19.90;39.27
18569;BME280;14780;48.316;-1.050;2023-04-07T08:40:21;99428.28;;;19.91;39.23
18569;BME280;14780;48.316;-1.050;2023-04-07T08:43:08;99419.06;;;19.92;39.25
18569;BME280;14780;48.316;-1.050;2023-04-07T08:45:56;99418.50;;;19.90;39.37
18569;BME280;14780;48.316;-1.050;2023-04-07T08:48:43;99420.94;;;19.91;39.31
18569;BME280;14780;48.316;-1.050;2023-04-07T08:51:31;99417.41;;;19.91;39.26
18569;BME280;14780;48.316;-1.050;2023-04-07T08:54:17;99412.00;;;19.91;39.26
18569;BME280;14780;48.316;-1.050;2023-04-07T08:57:03;99415.28;;;19.93;39.27
18569;BME280;14780;48.316;-1.050;2023-04-07T08:59:48;99408.19;;;19.92;39.27
18569;BME280;14780;48.316;-1.050;2023-04-07T09:02:40;99409.84;;;19.93;39.28
18569;BME280;14780;48.316;-1.050;2023-04-07T09:05:26;99409.38;;;19.96;39.12
18569;BME280;14780;48.316;-1.050;2023-04-07T09:08:11;99401.69;;;19.93;39.31
18569;BME280;14780;48.316;-1.050;2023-04-07T09:10:57;99403.59;;;19.92;39.31
18569;BME280;14780;48.316;-1.050;2023-04-07T09:13:41;99411.50;;;19.94;39.35
18569;BME280;14780;48.316;-1.050;2023-04-07T09:16:28;99407.13;;;19.93;39.32
18569;BME280;14780;48.316;-1.050;2023-04-07T09:19:12;99411.50;;;19.94;39.24
18569;BME280;14780;48.316;-1.050;2023-04-07T09:21:57;99420.25;;;19.96;39.32
18569;BME280;14780;48.316;-1.050;2023-04-07T09:24:41;99425.69;;;19.96;39.31
18569;BME280;14780;48.316;-1.050;2023-04-07T09:27:26;99418.94;;;19.98;39.17
18569;BME280;14780;48.316;-1.050;2023-04-07T09:30:13;99412.69;;;19.98;39.34
18569;BME280;14780;48.316;-1.050;2023-04-07T09:32:59;99414.34;;;19.99;39.23
18569;BME280;14780;48.316;-1.050;2023-04-07T09:35:51;99419.28;;;20.02;39.28
18569;BME280;14780;48.316;-1.050;2023-04-07T09:38:40;99413.25;;;20.00;39.18
18569;BME280;14780;48.316;-1.050;2023-04-07T09:41:27;99411.38;;;20.00;39.23
18569;BME280;14780;48.316;-1.050;2023-04-07T09:44:12;99410.09;;;20.03;39.30
18569;BME280;14780;48.316;-1.050;2023-04-07T09:46:58;99408.19;;;20.03;39.30
18569;BME280;14780;48.316;-1.050;2023-04-07T09:49:54;99403.13;;;20.07;39.27
18569;BME280;14780;48.316;-1.050;2023-04-07T09:55:35;99421.06;;;20.08;39.23
18569;BME280;14780;48.316;-1.050;2023-04-07T09:58:20;99420.25;;;20.07;39.28
18569;BME280;14780;48.316;-1.050;2023-04-07T10:01:09;99422.50;;;20.10;39.24
18569;BME280;14780;48.316;-1.050;2023-04-07T10:03:55;99416.81;;;20.12;39.16
18569;BME280;14780;48.316;-1.050;2023-04-07T10:06:41;99416.81;;;20.12;39.28
18569;BME280;14780;48.316;-1.050;2023-04-07T10:09:27;99420.34;;;20.12;39.16
18569;BME280;14780;48.316;-1.050;2023-04-07T10:12:13;99420.69;;;20.16;39.25
18569;BME280;14780;48.316;-1.050;2023-04-07T10:14:59;99416.91;;;20.17;39.14
18569;BME280;14780;48.316;-1.050;2023-04-07T10:17:46;99427.31;;;20.20;39.15
18569;BME280;14780;48.316;-1.050;2023-04-07T10:20:32;99425.19;;;20.22;39.19
18569;BME280;14780;48.316;-1.050;2023-04-07T10:23:29;99425.75;;;20.24;39.19
18569;BME280;14780;48.316;-1.050;2023-04-07T10:26:19;99433.91;;;20.24;39.14
18569;BME280;14780;48.316;-1.050;2023-04-07T10:29:10;99430.94;;;20.25;39.08
18569;BME280;14780;48.316;-1.050;2023-04-07T10:31:59;99435.09;;;20.28;39.12
18569;BME280;14780;48.316;-1.050;2023-04-07T10:37:36;99430.00;;;20.31;39.07
18569;BME280;14780;48.316;-1.050;2023-04-07T10:43:11;99430.34;;;20.35;39.12
18569;BME280;14780;48.316;-1.050;2023-04-07T10:45:57;99430.09;;;20.36;39.00
18569;BME280;14780;48.316;-1.050;2023-04-07T10:48:42;99432.56;;;20.38;39.12
18569;BME280;14780;48.316;-1.050;2023-04-07T11:03:56;99426.84;;;20.51;38.98
18569;BME280;14780;48.316;-1.050;2023-04-07T11:06:47;99426.38;;;20.54;38.98
18569;BME280;14780;48.316;-1.050;2023-04-07T11:09:32;99419.28;;;20.53;38.96
18569;BME280;14780;48.316;-1.050;2023-04-07T11:12:24;99413.59;;;20.54;38.94
18569;BME280;14780;48.316;-1.050;2023-04-07T11:15:19;99416.09;;;20.56;39.04
18569;BME280;14780;48.316;-1.050;2023-04-07T11:18:09;99415.00;;;20.57;38.86
18569;BME280;14780;48.316;-1.050;2023-04-07T11:20:56;99418.56;;;20.57;38.93
18569;BME280;14780;48.316;-1.050;2023-04-07T11:23:43;99415.00;;;20.57;38.94
18569;BME280;14780;48.316;-1.050;2023-04-07T11:26:37;99418.06;;;20.60;38.84
18569;BME280;14780;48.316;-1.050;2023-04-07T11:29:32;99412.13;;;20.63;38.88
18569;BME280;14780;48.316;-1.050;2023-04-07T11:32:22;99414.03;;;20.63;38.75
18569;BME280;14780;48.316;-1.050;2023-04-07T11:35:09;99412.97;;;20.64;38.73
18569;BME280;14780;48.316;-1.050;2023-04-07T11:37:58;99403.75;;;20.65;38.86
18569;BME280;14780;48.316;-1.050;2023-04-07T11:40:43;99412.47;;;20.67;38.79
18569;BME280;14780;48.316;-1.050;2023-04-07T11:43:28;99406.81;;;20.68;38.69
18569;BME280;14780;48.316;-1.050;2023-04-07T11:46:17;99405.50;;;20.71;38.70
18569;BME280;14780;48.316;-1.050;2023-04-07T11:49:12;99403.13;;;20.74;38.66
18569;BME280;14780;48.316;-1.050;2023-04-07T11:52:06;99402.63;;;20.77;38.65
18569;BME280;14780;48.316;-1.050;2023-04-07T11:54:51;99402.63;;;20.77;38.63
18569;BME280;14780;48.316;-1.050;2023-04-07T11:57:36;99411.38;;;20.79;38.71
18569;BME280;14780;48.316;-1.050;2023-04-07T12:00:22;99408.38;;;20.81;38.66
18569;BME280;14780;48.316;-1.050;2023-04-07T12:03:10;99405.66;;;20.81;38.64
18569;BME280;14780;48.316;-1.050;2023-04-07T12:05:57;99402.47;;;20.84;38.53
18569;BME280;14780;48.316;-1.050;2023-04-07T12:08:43;99405.78;;;20.86;38.45
18569;BME280;14780;48.316;-1.050;2023-04-07T12:11:28;99396.56;;;20.87;38.54
18569;BME280;14780;48.316;-1.050;2023-04-07T12:14:13;99392.31;;;20.91;38.48
18569;BME280;14780;48.316;-1.050;2023-04-07T12:16:58;99379.28;;;20.93;38.44
18569;BME280;14780;48.316;-1.050;2023-04-07T12:19:45;99377.97;;;20.95;38.44
18569;BME280;14780;48.316;-1.050;2023-04-07T12:22:29;99371.22;;;20.98;38.46
18569;BME280;14780;48.316;-1.050;2023-04-07T12:25:14;99370.69;;;21.01;38.31
18569;BME280;14780;48.316;-1.050;2023-04-07T12:27:58;99374.00;;;21.03;38.24
18569;BME280;14780;48.316;-1.050;2023-04-07T12:30:43;99375.66;;;21.04;38.22
18569;BME280;14780;48.316;-1.050;2023-04-07T12:33:28;99377.03;;;21.06;38.17
18569;BME280;14780;48.316;-1.050;2023-04-07T12:36:13;99373.63;;;21.11;38.25
18569;BME280;14780;48.316;-1.050;2023-04-07T12:38:57;99376.91;;;21.13;38.31
18569;BME280;14780;48.316;-1.050;2023-04-07T12:41:42;99376.41;;;21.16;38.09
18569;BME280;14780;48.316;-1.050;2023-04-07T12:44:29;99381.34;;;21.19;38.18
18569;BME280;14780;48.316;-1.050;2023-04-07T12:47:14;99374.34;;;21.23;38.04
18569;BME280;14780;48.316;-1.050;2023-04-07T12:50:00;99372.19;;;21.25;38.07
18569;BME280;14780;48.316;-1.050;2023-04-07T12:52:45;99357.00;;;21.29;38.06
18569;BME280;14780;48.316;-1.050;2023-04-07T12:55:31;99361.94;;;21.32;37.98
18569;BME280;14780;48.316;-1.050;2023-04-07T12:58:17;99355.47;;;21.33;38.03
18569;BME280;14780;48.316;-1.050;2023-04-07T13:01:02;99347.34;;;21.38;38.02
18569;BME280;14780;48.316;-1.050;2023-04-07T13:03:47;99349.59;;;21.41;37.86
18569;BME280;14780;48.316;-1.050;2023-04-07T13:06:32;99356.44;;;21.43;37.98
18569;BME280;14780;48.316;-1.050;2023-04-07T13:09:17;99346.91;;;21.46;37.88
18569;BME280;14780;48.316;-1.050;2023-04-07T13:12:01;99351.88;;;21.49;37.95
18569;BME280;14780;48.316;-1.050;2023-04-07T13:14:46;99341.63;;;21.56;37.90
18569;BME280;14780;48.316;-1.050;2023-04-07T13:17:31;99342.19;;;21.58;37.75
18569;BME280;14780;48.316;-1.050;2023-04-07T13:20:16;99351.53;;;21.62;37.80
18569;BME280;14780;48.316;-1.050;2023-04-07T13:23:01;99340.13;;;21.65;37.77
18569;BME280;14780;48.316;-1.050;2023-04-07T13:25:46;99341.78;;;21.66;37.73
18569;BME280;14780;48.316;-1.050;2023-04-07T13:28:31;99334.19;;;21.68;37.64
18569;BME280;14780;48.316;-1.050;2023-04-07T13:31:15;99338.91;;;21.72;37.66
18569;BME280;14780;48.316;-1.050;2023-04-07T13:34:01;99338.63;;;21.74;37.66
18569;BME280;14780;48.316;-1.050;2023-04-07T13:36:46;99335.66;;;21.75;37.49
18569;BME280;14780;48.316;-1.050;2023-04-07T13:39:31;99338.72;;;21.79;37.50
18569;BME280;14780;48.316;-1.050;2023-04-07T13:42:16;99337.13;;;21.83;37.56
18569;BME280;14780;48.316;-1.050;2023-04-07T13:45:02;99327.88;;;21.84;37.44
18569;BME280;14780;48.316;-1.050;2023-04-07T13:47:47;99327.38;;;21.87;37.50
18569;BME280;14780;48.316;-1.050;2023-04-07T13:50:37;99331.50;;;21.89;37.52
18569;BME280;14780;48.316;-1.050;2023-04-07T13:53:22;99326.06;;;21.89;37.46
18569;BME280;14780;48.316;-1.050;2023-04-07T13:56:07;99324.72;;;21.92;37.42
18569;BME280;14780;48.316;-1.050;2023-04-07T13:58:53;99325.28;;;21.94;37.34
18569;BME280;14780;48.316;-1.050;2023-04-07T14:01:38;99328.31;;;21.97;37.34
18569;BME280;14780;48.316;-1.050;2023-04-07T14:04:23;99332.44;;;22.00;37.34
18569;BME280;14780;48.316;-1.050;2023-04-07T14:07:07;99326.47;;;22.03;37.17
18569;BME280;14780;48.316;-1.050;2023-04-07T14:09:52;99328.72;;;22.06;37.29
18569;BME280;14780;48.316;-1.050;2023-04-07T14:12:38;99320.84;;;22.09;37.20
18569;BME280;14780;48.316;-1.050;2023-04-07T14:15:22;99312.69;;;22.09;37.14
18569;BME280;14780;48.316;-1.050;2023-04-07T14:18:07;99321.16;;;22.13;37.15
18569;BME280;14780;48.316;-1.050;2023-04-07T14:20:52;99325.53;;;22.14;37.11
18569;BME280;14780;48.316;-1.050;2023-04-07T14:23:37;99324.75;;;22.18;37.04
18569;BME280;14780;48.316;-1.050;2023-04-07T14:26:22;99326.41;;;22.19;37.03
18569;BME280;14780;48.316;-1.050;2023-04-07T14:29:07;99316.34;;;22.20;36.99
18569;BME280;14780;48.316;-1.050;2023-04-07T14:31:52;99314.16;;;22.22;36.93
18569;BME280;14780;48.316;-1.050;2023-04-07T14:34:36;99310.38;;;22.23;36.95
18569;BME280;14780;48.316;-1.050;2023-04-07T14:37:21;99311.75;;;22.25;36.83
18569;BME280;14780;48.316;-1.050;2023-04-07T14:40:10;99307.94;;;22.26;36.85
18569;BME280;14780;48.316;-1.050;2023-04-07T14:42:55;99308.78;;;22.27;36.87
18569;BME280;14780;48.316;-1.050;2023-04-07T14:45:42;99312.31;;;22.27;36.85
18569;BME280;14780;48.316;-1.050;2023-04-07T14:48:27;99314.78;;;22.29;36.86
18569;BME280;14780;48.316;-1.050;2023-04-07T14:51:12;99315.03;;;22.27;36.85
18569;BME280;14780;48.316;-1.050;2023-04-07T14:53:56;99317.28;;;22.30;36.73